createdAt,value
2022-10-22T00:02:03.265Z,2.85
2022-10-22T00:04:35.402Z,0.75
2022-10-22T00:07:06.012Z,1.88
2022-10-22T00:09:36.206Z,1.48
2022-10-22T00:12:06.765Z,2.58
2022-10-22T00:14:37.338Z,0.38
2022-10-22T00:17:11.193Z,0.75
2022-10-22T00:19:42.207Z,1.52
2022-10-22T00:22:14.313Z,3.05
2022-10-22T00:24:44.652Z,5.15
2022-10-22T00:29:45.228Z,2.72
2022-10-22T00:32:16.931Z,2.15
2022-10-22T00:34:47.333Z,0.93
2022-10-22T00:37:17.440Z,1.20
2022-10-22T00:42:24.497Z,1.02
2022-10-22T00:45:19.591Z,0.95
2022-10-22T00:48:07.230Z,2.97
2022-10-22T00:50:46.544Z,1.38
2022-10-22T00:53:20.632Z,1.15
2022-10-22T00:55:54.560Z,1.48
2022-10-22T00:58:28.037Z,2.03
2022-10-22T01:00:59.155Z,3.25
2022-10-22T01:03:29.824Z,3.60
2022-10-22T01:06:02.646Z,0.28
2022-10-22T01:08:50.069Z,2.25
2022-10-22T01:11:55.322Z,0.55
2022-10-22T01:14:30.637Z,4.60
2022-10-22T01:17:06.854Z,2.05
2022-10-22T01:20:02.975Z,1.20
2022-10-22T01:22:47.875Z,0.95
2022-10-22T01:25:37.071Z,0.28
2022-10-22T01:28:28.822Z,2.83
2022-10-22T01:31:00.873Z,1.00
2022-10-22T01:33:32.432Z,2.55
2022-10-22T01:36:03.621Z,0.50
2022-10-22T01:38:34.630Z,1.48
2022-10-22T01:41:05.331Z,2.63
2022-10-22T01:43:35.576Z,4.00
2022-10-22T01:46:07.739Z,6.80
2022-10-22T01:49:26.571Z,2.45
2022-10-22T01:52:08.839Z,0.40
2022-10-22T01:54:48.252Z,0.80
2022-10-22T01:57:25.718Z,5.55
2022-10-22T02:00:13.353Z,0.88
2022-10-22T02:03:02.388Z,0.40
2022-10-22T02:05:42.576Z,7.85
2022-10-22T02:08:27.005Z,0.43
2022-10-22T02:10:59.046Z,2.13
2022-10-22T02:13:50.044Z,1.00
2022-10-22T02:16:39.575Z,2.42
2022-10-22T02:19:29.844Z,3.05
2022-10-22T02:22:00.143Z,7.78
2022-10-22T02:27:24.234Z,1.80
2022-10-22T02:30:08.632Z,2.05
2022-10-22T02:32:50.942Z,2.63
2022-10-22T02:35:24.796Z,10.82
2022-10-22T02:37:56.850Z,3.22
2022-10-22T02:40:28.309Z,0.93
2022-10-22T02:42:58.512Z,3.50
2022-10-22T02:45:29.523Z,4.30
2022-10-22T02:48:00.237Z,0.88
2022-10-22T02:50:30.560Z,0.38
2022-10-22T02:55:30.416Z,2.40
2022-10-22T03:00:30.399Z,1.23
2022-10-22T03:03:00.525Z,3.13
2022-10-22T03:05:31.082Z,2.35
2022-10-22T03:08:01.302Z,0.98
2022-10-22T03:10:31.617Z,2.05
2022-10-22T03:15:31.285Z,2.95
2022-10-22T03:18:01.639Z,2.65
2022-10-22T03:20:31.685Z,1.38
2022-10-22T03:23:02.715Z,1.25
2022-10-22T03:25:35.674Z,3.53
2022-10-22T03:28:09.834Z,0.50
2022-10-22T03:30:40.062Z,1.33
2022-10-22T03:33:10.190Z,6.90
2022-10-22T03:35:47.014Z,3.92
2022-10-22T03:38:17.447Z,3.03
2022-10-22T03:40:49.137Z,0.73
2022-10-22T03:43:19.460Z,1.67
2022-10-22T03:48:19.428Z,2.92
2022-10-22T03:50:49.733Z,3.85
2022-10-22T03:53:19.808Z,1.08
2022-10-22T03:55:49.810Z,2.40
2022-10-22T03:58:19.764Z,1.98
2022-10-22T04:00:49.787Z,2.63
2022-10-22T04:03:19.705Z,1.10
2022-10-22T04:05:49.780Z,2.17
2022-10-22T04:08:19.686Z,16.42
2022-10-22T04:10:55.855Z,0.88
2022-10-22T04:13:26.476Z,2.88
2022-10-22T04:15:56.651Z,1.13
2022-10-22T04:18:26.855Z,3.88
2022-10-22T04:20:57.125Z,1.95
2022-10-22T04:23:26.977Z,2.10
2022-10-22T04:26:05.249Z,2.65
2022-10-22T04:28:36.441Z,12.48
2022-10-22T04:31:17.811Z,1.27
2022-10-22T04:33:48.474Z,2.30
2022-10-22T04:36:20.271Z,1.80
2022-10-22T04:38:55.658Z,4.72
2022-10-22T04:41:29.325Z,3.60
2022-10-22T04:44:00.522Z,5.35
2022-10-22T04:46:32.850Z,1.13
2022-10-22T04:49:05.096Z,3.28
2022-10-22T04:51:35.240Z,1.70
2022-10-22T04:54:05.673Z,1.60
2022-10-22T04:56:35.931Z,0.60
2022-10-22T05:01:43.116Z,0.82
2022-10-22T05:04:16.211Z,5.55
2022-10-22T05:06:47.019Z,9.55
2022-10-22T05:09:20.158Z,1.80
2022-10-22T05:11:53.210Z,2.08
2022-10-22T05:14:26.034Z,1.13
2022-10-22T05:16:56.581Z,4.18
2022-10-22T05:19:31.306Z,2.50
2022-10-22T05:22:06.075Z,0.30
2022-10-22T05:24:38.284Z,3.47
2022-10-22T05:27:08.569Z,0.60
2022-10-22T05:29:38.959Z,2.78
2022-10-22T05:32:09.466Z,5.28
2022-10-22T05:34:39.676Z,2.92
2022-10-22T05:37:10.580Z,1.00
2022-10-22T05:39:42.787Z,6.10
2022-10-22T05:42:13.957Z,2.55
2022-10-22T05:44:44.275Z,5.53
2022-10-22T05:47:14.614Z,2.42
2022-10-22T05:52:14.142Z,4.40
2022-10-22T05:54:44.625Z,1.00
2022-10-22T05:57:14.783Z,5.03
2022-10-22T05:59:44.873Z,3.70
2022-10-22T06:02:15.670Z,0.88
2022-10-22T06:04:46.034Z,3.25
2022-10-22T06:09:51.383Z,6.70
2022-10-22T06:12:21.878Z,0.75
2022-10-22T06:14:52.152Z,1.42
2022-10-22T06:17:22.392Z,3.85
2022-10-22T06:22:22.436Z,5.00
2022-10-22T06:27:22.218Z,0.68
2022-10-22T06:29:52.417Z,1.65
2022-10-22T06:32:22.707Z,0.93
2022-10-22T06:34:53.177Z,0.70
2022-10-22T06:37:23.491Z,1.30
2022-10-22T06:39:53.447Z,5.63
2022-10-22T06:42:24.125Z,6.38
2022-10-22T06:44:54.800Z,4.50
2022-10-22T06:47:25.315Z,1.58
2022-10-22T06:49:55.557Z,1.85
2022-10-22T06:52:25.805Z,2.67
2022-10-22T06:54:55.943Z,1.58
2022-10-22T06:57:26.263Z,1.10
2022-10-22T06:59:56.291Z,2.88
2022-10-22T07:02:26.516Z,2.15
2022-10-22T07:04:57.337Z,2.78
2022-10-22T07:07:27.590Z,5.40
2022-10-22T07:09:57.783Z,7.03
2022-10-22T07:12:28.200Z,5.22
2022-10-22T07:14:58.591Z,1.83
2022-10-22T07:17:28.950Z,3.58
2022-10-22T07:22:29.357Z,4.43
2022-10-22T07:25:01.599Z,3.50
2022-10-22T07:27:34.187Z,3.45
2022-10-22T07:30:04.494Z,1.73
2022-10-22T07:32:34.688Z,1.65
2022-10-22T07:35:05.761Z,2.22
2022-10-22T07:37:36.094Z,13.90
2022-10-22T07:40:06.350Z,28.95
2022-10-22T07:45:07.024Z,33.90
2022-10-22T07:47:37.299Z,34.60
2022-10-22T07:50:08.620Z,29.48
2022-10-22T07:52:39.242Z,21.75
2022-10-22T07:55:10.274Z,14.63
2022-10-22T07:57:40.984Z,13.10
2022-10-22T08:00:12.596Z,8.15
2022-10-22T08:02:42.777Z,10.48
2022-10-22T08:05:14.646Z,9.98
2022-10-22T08:07:45.109Z,6.95
2022-10-22T08:10:15.537Z,2.67
2022-10-22T08:12:45.913Z,6.95
2022-10-22T08:15:16.439Z,2.03
2022-10-22T08:17:46.685Z,2.38
2022-10-22T08:20:17.486Z,3.00
2022-10-22T08:22:47.873Z,4.88
2022-10-22T08:27:49.796Z,3.72
2022-10-22T08:30:20.047Z,3.15
2022-10-22T08:32:53.078Z,2.97
2022-10-22T08:35:24.485Z,3.25
2022-10-22T08:40:38.979Z,1.10
2022-10-22T08:43:15.504Z,2.88
2022-10-22T08:46:04.480Z,5.90
2022-10-22T08:48:44.110Z,1.77
2022-10-22T08:51:18.437Z,2.78
2022-10-22T08:54:06.839Z,11.93
2022-10-22T08:56:42.693Z,7.78
2022-10-22T08:59:13.075Z,1.48
2022-10-22T09:04:33.669Z,6.43
2022-10-22T09:07:03.903Z,1.92
2022-10-22T09:09:41.354Z,3.30
2022-10-22T09:12:20.102Z,2.78
2022-10-22T09:14:50.811Z,2.03
2022-10-22T09:17:42.933Z,0.80
2022-10-22T09:20:19.733Z,1.30
2022-10-22T09:23:23.806Z,0.70
2022-10-22T09:25:54.437Z,3.50
2022-10-22T09:28:24.730Z,3.75
2022-10-22T09:33:28.711Z,2.05
2022-10-22T09:36:08.101Z,9.90
2022-10-22T09:38:47.799Z,0.98
2022-10-22T09:41:19.140Z,2.70
2022-10-22T09:43:50.233Z,1.02
2022-10-22T09:46:25.087Z,3.13
2022-10-22T09:49:03.459Z,3.58
2022-10-22T09:52:02.114Z,5.20
2022-10-22T09:54:35.132Z,4.10
2022-10-22T09:57:23.790Z,0.45
2022-10-22T09:59:56.572Z,2.67
2022-10-22T10:02:38.742Z,4.03
2022-10-22T10:05:10.397Z,6.95
2022-10-22T10:07:40.921Z,1.45
2022-10-22T10:10:50.038Z,4.18
2022-10-22T10:13:32.325Z,1.02
2022-10-22T10:16:09.569Z,1.65
2022-10-22T10:19:03.750Z,2.63
2022-10-22T10:21:44.966Z,4.57
2022-10-22T10:24:18.338Z,5.07
2022-10-22T10:27:15.312Z,7.43
2022-10-22T10:30:06.457Z,3.40
2022-10-22T10:32:55.101Z,0.88
2022-10-22T10:35:56.447Z,7.75
2022-10-22T10:38:51.883Z,3.45
2022-10-22T10:41:35.780Z,5.07
2022-10-22T10:44:16.359Z,13.45
2022-10-22T10:46:49.649Z,6.82
2022-10-22T10:49:26.552Z,3.58
2022-10-22T10:52:18.823Z,4.07
2022-10-22T10:55:02.601Z,4.50
2022-10-22T10:57:48.532Z,3.92
2022-10-22T11:00:22.637Z,2.65
2022-10-22T11:03:17.758Z,2.65
2022-10-22T11:09:00.945Z,0.75
2022-10-22T11:14:18.223Z,3.03
2022-10-22T11:17:02.887Z,2.60
2022-10-22T11:19:54.602Z,3.13
2022-10-22T11:23:18.014Z,1.75
2022-10-22T11:25:49.747Z,6.30
2022-10-22T11:28:30.044Z,4.25
2022-10-22T11:31:15.903Z,4.05
2022-10-22T11:34:09.935Z,4.93
2022-10-22T11:36:53.078Z,3.88
2022-10-22T11:39:36.886Z,4.93
2022-10-22T11:42:11.772Z,10.35
2022-10-22T11:45:16.783Z,5.50
2022-10-22T11:48:09.436Z,1.02
2022-10-22T11:51:02.972Z,3.78
2022-10-22T11:53:40.420Z,3.13
2022-10-22T11:56:14.263Z,3.22
2022-10-22T11:58:52.243Z,1.80
2022-10-22T12:01:30.897Z,4.65
2022-10-22T12:04:01.242Z,2.97
2022-10-22T12:06:51.136Z,2.33
2022-10-22T12:09:23.886Z,0.50
2022-10-22T12:11:54.183Z,1.17
2022-10-22T12:14:41.881Z,0.85
2022-10-22T12:17:16.219Z,3.85
2022-10-22T12:19:49.172Z,1.08
2022-10-22T12:22:25.127Z,3.92
2022-10-22T12:25:02.013Z,3.03
2022-10-22T12:27:42.576Z,4.60
2022-10-22T12:30:31.678Z,3.67
2022-10-22T12:35:44.084Z,2.85
2022-10-22T12:38:25.095Z,3.40
2022-10-22T12:40:57.974Z,1.23
2022-10-22T12:43:31.346Z,2.00
2022-10-22T12:46:02.601Z,5.65
2022-10-22T12:48:35.727Z,5.82
2022-10-22T12:51:11.250Z,0.63
2022-10-22T12:53:54.707Z,1.65
2022-10-22T12:56:28.295Z,0.50
2022-10-22T12:59:01.955Z,4.60
2022-10-22T13:01:43.723Z,2.35
2022-10-22T13:04:32.316Z,1.65
2022-10-22T13:07:18.242Z,1.50
2022-10-22T13:10:01.729Z,2.22
2022-10-22T13:12:39.237Z,1.60
2022-10-22T13:15:23.342Z,4.20
2022-10-22T13:18:06.072Z,3.78
2022-10-22T13:20:38.596Z,4.57
2022-10-22T13:23:21.038Z,2.80
2022-10-22T13:26:10.253Z,0.65
2022-10-22T13:28:40.644Z,2.08
2022-10-22T13:31:24.377Z,3.13
2022-10-22T13:34:12.901Z,4.95
2022-10-22T13:36:43.181Z,1.10
2022-10-22T13:39:26.506Z,5.38
2022-10-22T13:41:56.672Z,3.75
2022-10-22T13:44:26.752Z,3.33
2022-10-22T13:46:57.484Z,1.33
2022-10-22T13:49:27.795Z,3.92
2022-10-22T13:51:58.057Z,2.53
2022-10-22T13:54:28.811Z,4.25
2022-10-22T13:56:58.814Z,1.90
2022-10-22T13:59:28.839Z,2.40
2022-10-22T14:01:58.861Z,3.83
2022-10-22T14:04:29.128Z,0.88
2022-10-22T14:07:01.367Z,5.70
2022-10-22T14:09:33.972Z,3.58
2022-10-22T14:12:04.149Z,6.47
2022-10-22T14:17:04.244Z,0.95
2022-10-22T14:19:34.725Z,1.33
2022-10-22T14:22:06.146Z,1.83
2022-10-22T14:24:36.328Z,2.60
2022-10-22T14:27:06.308Z,0.95
2022-10-22T14:32:08.123Z,0.73
2022-10-22T14:34:38.402Z,1.75
2022-10-22T14:37:19.656Z,1.58
2022-10-22T14:39:53.767Z,1.40
2022-10-22T14:42:24.020Z,6.07
2022-10-22T14:47:23.670Z,4.72
2022-10-22T14:49:53.852Z,2.95
2022-10-22T14:52:23.704Z,1.60
2022-10-22T14:54:54.931Z,3.25
2022-10-22T14:57:25.748Z,9.70
2022-10-22T14:59:56.131Z,2.95
2022-10-22T15:02:27.327Z,2.88
2022-10-22T15:07:32.540Z,4.00
2022-10-22T15:10:02.758Z,2.78
2022-10-22T15:12:33.041Z,4.38
2022-10-22T15:15:03.326Z,3.15
2022-10-22T15:17:33.580Z,0.80
2022-10-22T15:20:05.376Z,2.88
2022-10-22T15:22:39.272Z,1.55
2022-10-22T15:25:10.774Z,2.08
2022-10-22T15:27:41.439Z,3.13
2022-10-22T15:30:11.831Z,0.63
2022-10-22T15:32:42.498Z,5.95
2022-10-22T15:35:12.886Z,4.72
2022-10-22T15:40:12.812Z,1.75
2022-10-22T15:42:43.306Z,0.50
2022-10-22T15:45:13.622Z,1.50
2022-10-22T15:50:18.626Z,2.45
2022-10-22T15:52:48.982Z,8.68
2022-10-22T15:55:20.131Z,4.95
2022-10-22T15:57:58.045Z,4.43
2022-10-22T16:00:30.801Z,6.53
2022-10-22T16:03:01.208Z,1.40
2022-10-22T16:05:31.514Z,1.40
2022-10-22T16:08:01.728Z,5.30
2022-10-22T16:10:31.898Z,3.83
2022-10-22T16:15:31.339Z,1.35
2022-10-22T16:20:31.139Z,1.67
2022-10-22T16:23:01.300Z,1.00
2022-10-22T16:25:31.655Z,2.85
2022-10-22T16:28:01.791Z,1.85
2022-10-22T16:30:33.741Z,0.65
2022-10-22T16:33:05.481Z,1.67
2022-10-22T16:35:35.992Z,1.95
2022-10-22T16:38:06.211Z,3.33
2022-10-22T16:40:36.611Z,0.30
2022-10-22T16:43:07.456Z,0.98
2022-10-22T16:45:37.925Z,0.52
2022-10-22T16:48:08.083Z,1.58
2022-10-22T16:50:41.246Z,0.35
2022-10-22T16:53:11.409Z,2.58
2022-10-22T16:55:42.492Z,4.88
2022-10-22T16:58:12.715Z,0.68
2022-10-22T17:00:44.353Z,2.92
2022-10-22T17:03:14.930Z,3.30
2022-10-22T17:05:45.124Z,2.47
2022-10-22T17:08:15.716Z,2.08
2022-10-22T17:10:45.904Z,2.25
2022-10-22T17:13:16.221Z,3.05
2022-10-22T17:15:46.429Z,1.55
2022-10-22T17:18:16.721Z,0.82
2022-10-22T17:20:47.087Z,1.10
2022-10-22T17:23:17.330Z,1.52
2022-10-22T17:25:47.583Z,1.13
2022-10-22T17:28:17.816Z,0.85
2022-10-22T17:30:48.080Z,0.98
2022-10-22T17:33:18.382Z,0.65
2022-10-22T17:35:50.630Z,2.85
2022-10-22T17:38:20.775Z,2.03
2022-10-22T17:40:50.872Z,3.25
2022-10-22T17:43:21.274Z,0.50
2022-10-22T17:45:51.530Z,1.48
2022-10-22T17:48:21.644Z,0.60
2022-10-22T17:50:52.851Z,0.82
2022-10-22T17:53:25.974Z,0.73
2022-10-22T17:58:32.997Z,0.30
2022-10-22T18:01:03.680Z,1.48
2022-10-22T18:03:34.907Z,0.57
2022-10-22T18:06:11.383Z,0.45
2022-10-22T18:08:41.659Z,1.25
2022-10-22T18:11:14.578Z,2.25
2022-10-22T18:13:45.519Z,0.22
2022-10-22T18:16:15.812Z,2.10
2022-10-22T18:18:54.252Z,0.43
2022-10-22T18:21:26.858Z,4.00
2022-10-22T18:23:58.305Z,0.10
2022-10-22T18:26:29.006Z,1.98
2022-10-22T18:29:00.348Z,4.10
2022-10-22T18:31:31.783Z,0.43
2022-10-22T18:34:02.082Z,0.55
2022-10-22T18:36:32.444Z,1.67
2022-10-22T18:39:03.853Z,1.02
2022-10-22T18:41:35.485Z,0.90
2022-10-22T18:44:08.742Z,1.35
2022-10-22T18:46:41.769Z,0.63
2022-10-22T18:49:19.304Z,1.00
2022-10-22T18:51:53.733Z,3.33
2022-10-22T18:54:24.613Z,0.30
2022-10-22T18:57:02.580Z,4.95
2022-10-22T18:59:33.195Z,0.55
2022-10-22T19:02:03.991Z,0.13
2022-10-22T19:04:38.187Z,1.23
2022-10-22T19:09:44.976Z,0.13
2022-10-22T19:12:17.126Z,0.17
2022-10-22T19:14:47.272Z,0.80
2022-10-22T19:17:17.482Z,2.47
2022-10-22T19:19:47.625Z,1.33
2022-10-22T19:22:18.180Z,0.35
2022-10-22T19:24:53.103Z,1.13
2022-10-22T19:27:23.512Z,0.95
2022-10-22T19:29:53.791Z,0.40
2022-10-22T19:32:26.280Z,0.93
2022-10-22T19:34:59.036Z,0.25
2022-10-22T19:39:58.355Z,2.95
2022-10-22T19:42:28.620Z,1.10
2022-10-22T19:44:59.422Z,0.30
2022-10-22T19:47:30.535Z,1.02
2022-10-22T19:50:01.009Z,0.30
2022-10-22T19:52:31.214Z,1.38
2022-10-22T19:55:01.487Z,8.27
2022-10-22T19:57:31.892Z,4.57
2022-10-22T20:00:02.268Z,1.40
2022-10-22T20:02:40.200Z,0.38
2022-10-22T20:05:10.988Z,0.95
2022-10-22T20:07:41.523Z,1.10
2022-10-22T20:10:13.179Z,3.78
2022-10-22T20:12:43.595Z,0.52
2022-10-22T20:15:15.524Z,1.33
2022-10-22T20:17:46.215Z,2.70
2022-10-22T20:20:16.997Z,0.50
2022-10-22T20:22:47.824Z,0.43
2022-10-22T20:25:18.506Z,0.60
2022-10-22T20:27:48.841Z,1.02
2022-10-22T20:30:20.798Z,0.85
2022-10-22T20:32:51.193Z,3.28
2022-10-22T20:35:21.697Z,2.63
2022-10-22T20:37:52.025Z,4.70
2022-10-22T20:40:22.382Z,2.85
2022-10-22T20:42:52.614Z,2.80
2022-10-22T20:45:22.802Z,8.18
2022-10-22T20:48:02.103Z,4.78
2022-10-22T20:50:33.503Z,4.07
2022-10-22T20:53:04.045Z,0.70
2022-10-22T20:55:34.303Z,1.35
2022-10-22T20:58:05.331Z,2.95
2022-10-22T21:00:37.414Z,1.25
2022-10-22T21:03:09.089Z,0.80
2022-10-22T21:05:39.527Z,6.57
2022-10-22T21:08:11.568Z,5.97
2022-10-22T21:10:41.761Z,10.15
2022-10-22T21:15:42.418Z,1.42
2022-10-22T21:18:12.867Z,4.88
2022-10-22T21:20:43.666Z,4.50
2022-10-22T21:23:14.519Z,5.43
2022-10-22T21:25:57.920Z,1.30
2022-10-22T21:31:00.362Z,2.60
2022-10-22T21:33:30.733Z,3.28
2022-10-22T21:36:00.982Z,4.32
2022-10-22T21:38:31.221Z,8.20
2022-10-22T21:41:05.397Z,5.70
2022-10-22T21:43:38.201Z,2.55
2022-10-22T21:46:10.973Z,2.63
2022-10-22T21:48:44.058Z,5.55
2022-10-22T21:51:17.226Z,4.32
2022-10-22T21:53:48.442Z,2.30
2022-10-22T21:56:21.899Z,3.05
2022-10-22T21:58:52.073Z,7.47
2022-10-22T22:03:53.329Z,5.40
2022-10-22T22:06:28.359Z,6.90
2022-10-22T22:09:03.925Z,5.57
2022-10-22T22:11:34.993Z,2.20
2022-10-22T22:14:05.202Z,0.90
2022-10-22T22:19:10.501Z,4.85
2022-10-22T22:22:00.183Z,8.90
2022-10-22T22:24:30.364Z,1.13
2022-10-22T22:29:30.214Z,1.38
2022-10-22T22:34:29.736Z,1.15
2022-10-22T22:36:59.824Z,1.00
2022-10-22T22:39:30.588Z,5.15
2022-10-22T22:42:01.018Z,9.88
2022-10-22T22:44:31.126Z,3.30
2022-10-22T22:47:01.531Z,0.40
2022-10-22T22:49:31.724Z,1.98
2022-10-22T22:54:31.848Z,5.32
2022-10-22T22:57:02.436Z,2.72
2022-10-22T22:59:32.583Z,6.75
2022-10-22T23:02:02.849Z,4.95
2022-10-22T23:04:33.172Z,1.75
2022-10-22T23:07:03.564Z,3.53
2022-10-22T23:09:33.706Z,3.60
2022-10-22T23:12:03.890Z,0.68
2022-10-22T23:14:34.069Z,3.22
2022-10-22T23:17:04.433Z,8.15
2022-10-22T23:19:34.738Z,4.10
2022-10-22T23:22:05.232Z,3.70
2022-10-22T23:24:35.388Z,2.03
2022-10-22T23:27:06.344Z,0.90
2022-10-22T23:29:37.691Z,2.83
2022-10-22T23:32:14.456Z,2.85
2022-10-22T23:34:44.669Z,2.67
2022-10-22T23:39:44.412Z,5.00
2022-10-22T23:42:14.810Z,7.50
2022-10-22T23:44:44.983Z,10.13
2022-10-22T23:47:15.267Z,6.80
2022-10-22T23:52:14.955Z,8.93
2022-10-22T23:57:14.934Z,8.15
2022-10-22T23:59:45.130Z,6.95
